Temryuk, Russia
Current Conditions -  °F | °C
As of 11:00 PM on Friday 19 Dec 2014 (Local Time) from URKA Reporting Station
Overcast Overcast  
Wind Chill: 41°   Ceiling: 3300
Heat Index: 41°   Visibility: 4mi
Dew Point: 39°   Wind: 2mph
Humidity: 93%   Direction: 30°NNE
Pressure: 30.15"   Gusts: NA
Location:  45.27°N, 37.38°E
Report Text: URKA 192000Z 03001MPS 6000 BKN033 OVC120 05/04 Q1021 RMKQFE762/1016
Loading
Personal Weather Stations






























Interactive Weather Map New forecast layout! Learn more

10-Day Weather Forecast

Advertisements
Track Severe Weather on mobile